Time;durP1;ratioP1;P1;durP2;ratioP2;P2;SDS_P1;SDS_P2;PMS_P1;PMS_P2;Temp;Humidity;BMP_temperature;BMP_pressure;BME280_temperature;BME280_humidity;BME280_pressure;Samples;Min_cycle;Max_cycle;Signal;HPM_P1;HPM_P2
2021/04/26 00:01:37;;;;;;;4.30;1.80;;;;;;;3.74;51.31;95830.78;5017163;28;20179;-75
2021/04/26 00:04:03;;;;;;;4.73;1.73;;;;;;;3.69;51.24;95819.03;5016940;28;20793;-74
2021/04/26 00:06:28;;;;;;;5.37;1.70;;;;;;;3.61;51.72;95816.13;5018144;28;20624;-75
2021/04/26 00:08:53;;;;;;;8.10;1.97;;;;;;;3.62;51.25;95819.50;5033561;28;20270;-74
2021/04/26 00:11:19;;;;;;;5.93;2.07;;;;;;;3.52;51.84;95816.72;5018254;28;20754;-74
2021/04/26 00:13:45;;;;;;;3.40;1.50;;;;;;;3.52;51.95;95806.44;5018234;28;20214;-74
2021/04/26 00:16:10;;;;;;;3.03;1.63;;;;;;;3.50;52.24;95803.16;5016570;28;20209;-74
2021/04/26 00:18:36;;;;;;;7.53;2.40;;;;;;;3.45;52.07;95802.66;5018122;28;20627;-73
2021/04/26 00:21:01;;;;;;;4.13;1.63;;;;;;;3.36;52.60;95805.81;5018147;28;20189;-74
2021/04/26 00:23:26;;;;;;;3.17;1.77;;;;;;;3.48;52.21;95799.88;5033470;28;20215;-74
2021/04/26 00:25:52;;;;;;;5.33;2.10;;;;;;;3.51;52.02;95793.72;5016541;28;20205;-73
2021/04/26 00:28:17;;;;;;;3.93;2.03;;;;;;;3.51;52.45;95797.09;5016509;28;20215;-74
2021/04/26 00:30:42;;;;;;;2.80;1.83;;;;;;;3.45;52.70;95791.56;5016789;28;20196;-74
2021/04/26 00:33:08;;;;;;;5.00;1.80;;;;;;;3.41;52.50;95788.34;5016800;28;20183;-73
2021/04/26 00:35:33;;;;;;;5.33;2.00;;;;;;;3.31;53.17;95787.28;5016375;28;20253;-74
2021/04/26 00:37:58;;;;;;;2.83;1.87;;;;;;;3.40;52.51;95781.56;5018035;28;20189;-74
2021/04/26 00:40:24;;;;;;;4.57;1.70;;;;;;;3.39;52.87;95773.03;5016837;28;20220;-74
2021/04/26 00:42:51;;;;;;;6.70;1.93;;;;;;;3.33;53.12;95777.75;5016618;28;20202;-74
2021/04/26 00:45:20;;;;;;;2.97;1.77;;;;;;;3.25;53.11;95765.41;5017298;28;20209;-73
2021/04/26 00:47:45;;;;;;;3.90;1.80;;;;;;;3.25;53.34;95765.41;5017733;28;20206;-74
2021/04/26 00:50:17;;;;;;;4.70;1.97;;;;;;;3.24;53.25;95757.81;5033081;28;20186;-73
2021/04/26 00:52:43;;;;;;;5.50;1.80;;;;;;;3.12;53.72;95749.16;5018260;28;20186;-73
2021/04/26 00:55:09;;;;;;;7.37;2.27;;;;;;;3.10;54.09;95749.25;5035928;28;20223;-73
2021/04/26 00:57:34;;;;;;;5.60;2.00;;;;;;;3.04;54.13;95744.50;5019772;28;20187;-74
2021/04/26 01:00:00;;;;;;;3.07;1.97;;;;;;;3.08;53.85;95734.84;5019968;28;20186;-74
2021/04/26 01:02:25;;;;;;;6.43;1.97;;;;;;;3.06;54.25;95731.56;5019869;28;20320;-74
2021/04/26 01:04:54;;;;;;;2.87;1.97;;;;;;;2.99;54.30;95736.25;5033031;28;20712;-73
2021/04/26 01:07:19;;;;;;;4.50;1.97;;;;;;;2.99;54.18;95731.13;5016631;28;20205;-74
2021/04/26 01:09:44;;;;;;;6.03;2.00;;;;;;;2.95;54.56;95732.25;5034239;28;20187;-73
2021/04/26 01:12:38;;;;;;;3.80;2.40;;;;;;;2.97;54.60;95730.41;5016612;28;20186;-74
2021/04/26 01:15:15;;;;;;;5.30;2.17;;;;;;;2.92;54.70;95724.75;5033880;28;20284;-74
2021/04/26 01:17:43;;;;;;;6.30;2.33;;;;;;;2.97;54.78;95719.31;5032843;28;20200;-74
2021/04/26 01:20:27;;;;;;;4.93;2.20;;;;;;;2.80;55.59;95718.63;5032818;28;20184;-73
2021/04/26 01:23:26;;;;;;;5.43;2.10;;;;;;;2.92;55.04;95719.63;5034181;28;20281;-74
2021/04/26 01:25:52;;;;;;;4.13;2.00;;;;;;;2.78;55.53;95717.09;5016208;28;20200;-74
2021/04/26 01:28:32;;;;;;;4.37;2.20;;;;;;;2.86;55.61;95724.31;5015656;28;20262;-74
2021/04/26 01:31:19;;;;;;;3.77;2.30;;;;;;;2.90;55.45;95720.63;5016369;28;20178;-74
2021/04/26 01:33:53;;;;;;;4.40;2.17;;;;;;;2.91;55.63;95727.38;5016149;28;20174;-74
2021/04/26 01:36:22;;;;;;;5.83;2.83;;;;;;;2.80;55.59;95716.06;5015990;28;20198;-74
2021/04/26 01:38:49;;;;;;;6.90;2.63;;;;;;;2.86;55.71;95714.88;5016223;28;20633;-74
2021/04/26 01:41:15;;;;;;;4.83;2.33;;;;;;;2.76;55.84;95718.94;5016155;28;20183;-74
2021/04/26 01:43:41;;;;;;;6.90;2.30;;;;;;;2.86;55.87;95725.13;5015860;28;20207;-74
2021/04/26 01:46:09;;;;;;;6.37;2.57;;;;;;;2.82;56.01;95726.22;5032249;28;20252;-74
2021/04/26 01:48:38;;;;;;;4.57;2.30;;;;;;;2.66;56.23;95728.13;5015868;28;20297;-74
2021/04/26 01:51:04;;;;;;;5.60;2.67;;;;;;;2.67;56.70;95709.25;5032498;28;20180;-74
2021/04/26 01:53:30;;;;;;;4.87;2.80;;;;;;;2.76;56.57;95709.50;5015791;28;20186;-74
2021/04/26 01:55:56;;;;;;;7.00;2.80;;;;;;;2.68;56.87;95701.47;5015485;28;20588;-74
2021/04/26 01:58:23;;;;;;;6.80;2.70;;;;;;;2.72;56.89;95708.03;5032178;28;20177;-73
2021/04/26 02:00:48;;;;;;;7.77;2.70;;;;;;;2.79;57.42;95704.16;5015735;28;20594;-74
2021/04/26 02:03:14;;;;;;;5.53;2.67;;;;;;;2.81;57.01;95709.19;5015760;28;20178;-74
2021/04/26 02:05:40;;;;;;;6.47;3.00;;;;;;;2.73;57.05;95708.84;5015413;28;20252;-74
2021/04/26 02:08:05;;;;;;;5.53;3.20;;;;;;;2.73;57.38;95712.25;5015503;28;20206;-74
2021/04/26 02:10:31;;;;;;;4.33;2.90;;;;;;;2.71;57.37;95710.69;5015562;28;20187;-74
2021/04/26 02:12:57;;;;;;;7.87;3.00;;;;;;;2.62;57.70;95712.09;5015388;28;20183;-74
2021/04/26 02:15:26;;;;;;;5.23;2.60;;;;;;;2.67;57.87;95715.22;5031367;28;20195;-74
2021/04/26 02:17:51;;;;;;;5.77;2.90;;;;;;;2.47;58.16;95716.44;5015352;28;20176;-74
2021/04/26 02:20:18;;;;;;;5.47;3.20;;;;;;;2.58;58.27;95722.66;5031848;28;20544;-74
2021/04/26 02:22:47;;;;;;;3.73;2.80;;;;;;;2.49;58.32;95721.47;5015369;28;20182;-74
2021/04/26 02:25:13;;;;;;;4.27;3.20;;;;;;;2.38;58.92;95719.53;5014953;28;20200;-75
2021/04/26 02:27:38;;;;;;;6.17;2.77;;;;;;;2.39;58.68;95710.97;5032532;28;20597;-74
2021/04/26 02:30:05;;;;;;;6.30;3.40;;;;;;;2.31;59.18;95708.03;5015085;28;20183;-74
2021/04/26 02:32:34;;;;;;;6.10;3.20;;;;;;;2.32;59.17;95704.56;5031331;28;20197;-74
2021/04/26 02:35:01;;;;;;;4.60;3.27;;;;;;;2.41;59.11;95716.00;5031261;28;20205;-74
2021/04/26 02:37:37;;;;;;;6.90;3.23;;;;;;;2.35;59.32;95711.22;5032699;28;20235;-74
2021/04/26 02:40:10;;;;;;;11.47;3.80;;;;;;;2.22;59.62;95709.44;5015011;28;20731;-74
2021/04/26 02:42:38;;;;;;;7.37;3.77;;;;;;;2.14;60.31;95703.94;5014853;28;20601;-74
2021/04/26 02:45:05;;;;;;;4.77;3.40;;;;;;;2.14;60.02;95692.88;5031075;28;20246;-74
2021/04/26 02:47:31;;;;;;;7.43;3.80;;;;;;;2.13;60.18;95696.34;5014713;28;20217;-74
2021/04/26 02:50:00;;;;;;;4.77;3.23;;;;;;;2.16;59.93;95694.41;5014854;28;20182;-74
2021/04/26 02:52:25;;;;;;;9.17;4.37;;;;;;;2.11;60.00;95691.28;5014743;28;20186;-74
2021/04/26 02:54:51;;;;;;;7.23;3.50;;;;;;;2.07;60.50;95679.59;5014676;28;20209;-74
2021/04/26 02:57:17;;;;;;;8.47;3.50;;;;;;;2.06;60.37;95677.13;5014812;28;20217;-74
2021/04/26 02:59:44;;;;;;;5.77;3.37;;;;;;;1.98;60.65;95675.03;5014523;28;20174;-74
2021/04/26 03:02:10;;;;;;;8.33;3.43;;;;;;;1.98;60.84;95680.97;5014677;28;20237;-74
2021/04/26 03:04:35;;;;;;;7.37;3.53;;;;;;;1.98;60.82;95680.97;5014270;28;20183;-74
2021/04/26 03:07:01;;;;;;;5.33;3.93;;;;;;;1.98;60.68;95664.78;5014370;28;20285;-74
2021/04/26 03:09:29;;;;;;;5.43;3.37;;;;;;;2.04;60.53;95668.72;5014663;28;20300;-74
2021/04/26 03:11:55;;;;;;;5.77;4.20;;;;;;;1.98;61.03;95665.59;5030902;28;20170;-74
2021/04/26 03:14:20;;;;;;;6.57;3.67;;;;;;;2.01;61.30;95666.34;5014160;28;20304;-73
2021/04/26 03:16:49;;;;;;;6.67;3.20;;;;;;;1.92;61.05;95660.03;5014320;28;20569;-74
2021/04/26 03:19:16;;;;;;;7.10;3.40;;;;;;;1.89;61.58;95655.09;5014253;28;20175;-74
2021/04/26 03:21:43;;;;;;;6.47;3.63;;;;;;;1.84;61.73;95654.53;5014406;28;20261;-74
2021/04/26 03:24:08;;;;;;;6.93;3.73;;;;;;;1.94;61.59;95648.78;5031881;28;20184;-73
2021/04/26 03:26:34;;;;;;;5.70;3.87;;;;;;;1.90;61.57;95657.56;5031541;28;20199;-74
2021/04/26 03:29:02;;;;;;;8.00;3.93;;;;;;;1.78;61.53;95648.06;5029786;28;20191;-74
2021/04/26 03:31:29;;;;;;;6.67;3.83;;;;;;;1.84;61.67;95650.25;5013923;28;20178;-74
2021/04/26 03:33:56;;;;;;;8.50;4.30;;;;;;;1.76;61.95;95652.44;5014041;28;20285;-73
2021/04/26 03:36:22;;;;;;;7.73;4.20;;;;;;;1.74;62.15;95645.78;5013775;28;20723;-74
2021/04/26 03:38:49;;;;;;;8.40;4.23;;;;;;;1.69;61.99;95643.50;5014120;28;20202;-74
2021/04/26 03:41:15;;;;;;;6.57;3.73;;;;;;;1.68;62.28;95641.84;5014269;28;20202;-73
2021/04/26 03:43:43;;;;;;;7.50;4.10;;;;;;;1.60;62.58;95633.81;5013937;28;20236;-74
2021/04/26 03:46:08;;;;;;;9.20;3.77;;;;;;;1.58;62.14;95640.72;5013710;28;20206;-74
2021/04/26 03:48:33;;;;;;;6.90;4.20;;;;;;;1.54;62.38;95640.09;5013948;28;20213;-72
2021/04/26 03:50:59;;;;;;;5.87;3.83;;;;;;;1.53;62.22;95642.75;5031597;28;20183;-74
2021/04/26 03:53:24;;;;;;;6.07;3.80;;;;;;;1.46;62.98;95651.69;5013961;28;20269;-74
2021/04/26 03:55:49;;;;;;;6.83;4.00;;;;;;;1.45;63.11;95645.75;5013394;28;20194;-74
2021/04/26 03:58:14;;;;;;;6.10;4.10;;;;;;;1.39;63.14;95648.66;5013789;28;20253;-74
2021/04/26 04:00:40;;;;;;;6.53;4.13;;;;;;;1.37;63.26;95653.88;5031356;28;20174;-74
2021/04/26 04:03:09;;;;;;;6.43;4.40;;;;;;;1.30;63.31;95651.75;5013884;28;20544;-74
2021/04/26 04:05:36;;;;;;;9.53;4.83;;;;;;;1.27;63.20;95646.84;5013347;28;20202;-74
2021/04/26 04:08:01;;;;;;;8.37;4.13;;;;;;;1.24;63.43;95647.84;5030235;28;20298;-74
2021/04/26 04:10:26;;;;;;;8.50;4.60;;;;;;;1.18;64.02;95637.97;5013780;28;20252;-74
2021/04/26 04:12:52;;;;;;;9.67;4.20;;;;;;;1.17;63.92;95645.72;5031273;28;20209;-73
2021/04/26 04:15:17;;;;;;;8.47;4.50;;;;;;;1.22;63.68;95644.53;5013210;28;20262;-74
2021/04/26 04:17:43;;;;;;;6.00;4.50;;;;;;;1.17;64.20;95646.53;5031426;28;20647;-74
2021/04/26 04:20:09;;;;;;;9.23;4.60;;;;;;;1.18;64.13;95637.13;5030310;28;20179;-74
2021/04/26 04:22:35;;;;;;;7.83;4.60;;;;;;;1.34;63.73;95638.72;5013671;28;20171;-74
2021/04/26 04:25:00;;;;;;;8.23;4.70;;;;;;;1.20;63.84;95638.69;5013286;28;20225;-73
2021/04/26 04:27:25;;;;;;;8.03;5.10;;;;;;;1.20;64.10;95636.13;5030894;28;20272;-74
2021/04/26 04:29:51;;;;;;;9.43;5.20;;;;;;;1.18;64.12;95637.97;5013511;28;20634;-74
2021/04/26 04:32:16;;;;;;;6.20;4.30;;;;;;;1.25;63.80;95636.69;5013123;28;20174;-74
2021/04/26 04:34:41;;;;;;;6.50;4.30;;;;;;;1.36;63.21;95639.44;5030875;28;20498;-74
2021/04/26 04:37:07;;;;;;;9.80;4.87;;;;;;;1.33;63.46;95637.06;5013519;28;20186;-74
2021/04/26 04:39:32;;;;;;;9.97;4.37;;;;;;;1.39;63.19;95634.13;5015166;28;20210;-74
2021/04/26 04:41:57;;;;;;;13.90;5.33;;;;;;;1.57;62.94;95636.53;5034755;28;20189;-74
2021/04/26 04:44:23;;;;;;;7.70;5.00;;;;;;;1.62;62.59;95634.53;5016687;28;20638;-74
2021/04/26 04:46:48;;;;;;;6.67;4.27;;;;;;;1.70;62.63;95640.84;5034589;28;20198;-74
2021/04/26 04:49:13;;;;;;;7.20;4.97;;;;;;;1.90;61.62;95628.56;5034677;28;20170;-72
2021/04/26 04:51:39;;;;;;;8.13;5.07;;;;;;;1.96;61.50;95630.78;5016959;28;20579;-72
2021/04/26 04:54:05;;;;;;;8.57;4.47;;;;;;;1.91;61.47;95633.59;5033466;28;20179;-71
2021/04/26 04:56:30;;;;;;;7.77;4.13;;;;;;;2.06;60.84;95634.41;5034230;28;20206;-74
2021/04/26 04:58:55;;;;;;;9.47;4.67;;;;;;;2.11;61.16;95634.13;5049813;28;20202;-73
2021/04/26 05:01:21;;;;;;;6.97;4.90;;;;;;;2.15;60.37;95633.84;5016767;28;20591;-74
2021/04/26 05:03:46;;;;;;;8.03;4.70;;;;;;;2.93;58.65;95639.19;5016900;28;20642;-74
2021/04/26 05:06:11;;;;;;;6.60;4.60;;;;;;;3.57;55.75;95639.25;5016295;28;20244;-74
2021/04/26 05:08:37;;;;;;;6.90;4.20;;;;;;;3.62;55.07;95632.06;5034232;28;20237;-73
2021/04/26 05:11:02;;;;;;;8.70;5.00;;;;;;;3.65;55.01;95629.28;5011237;28;20286;-74
2021/04/26 05:13:27;;;;;;;9.57;4.80;;;;;;;3.42;56.47;95638.53;5015359;28;20187;-73
2021/04/26 05:15:53;;;;;;;8.27;4.37;;;;;;;3.19;56.06;95641.81;4994582;28;20208;-74
2021/04/26 05:18:18;;;;;;;6.93;4.10;;;;;;;3.01;57.63;95636.94;4993081;28;20180;-74
2021/04/26 05:20:43;;;;;;;9.90;4.73;;;;;;;2.81;57.70;95634.81;4976958;28;20239;-73
2021/04/26 05:23:10;;;;;;;7.47;3.60;;;;;;;2.77;57.85;95634.22;4990277;28;20187;-72
2021/04/26 05:25:35;;;;;;;7.23;4.37;;;;;;;2.71;57.62;95644.84;4994007;28;20595;-71
2021/04/26 05:28:01;;;;;;;5.87;4.33;;;;;;;2.80;57.42;95644.25;4995135;28;20220;-72
2021/04/26 05:30:28;;;;;;;7.33;4.60;;;;;;;2.73;58.09;95640.44;4994774;28;20176;-72
2021/04/26 05:32:53;;;;;;;7.87;4.00;;;;;;;3.02;58.03;95643.72;4996548;28;20234;-71
2021/04/26 05:35:18;;;;;;;5.27;4.20;;;;;;;3.16;56.94;95642.81;4994410;28;20214;-74
2021/04/26 05:37:45;;;;;;;7.60;4.30;;;;;;;3.26;56.93;95645.59;5012632;28;20640;-72
2021/04/26 05:40:10;;;;;;;8.93;4.53;;;;;;;3.29;56.23;95640.28;4995099;28;20183;-74
2021/04/26 05:42:36;;;;;;;6.50;4.23;;;;;;;3.46;55.27;95644.28;5012189;28;20642;-73
2021/04/26 05:45:01;;;;;;;7.13;4.70;;;;;;;3.56;55.34;95647.88;4977758;28;20245;-74
2021/04/26 05:47:27;;;;;;;8.30;4.40;;;;;;;3.66;54.65;95646.34;4994707;28;20249;-74
2021/04/26 05:49:52;;;;;;;9.33;4.30;;;;;;;3.56;55.31;95645.31;5010891;28;20577;-74
2021/04/26 05:52:17;;;;;;;11.73;4.60;;;;;;;3.62;54.90;95650.88;4991405;28;20206;-74
2021/04/26 05:54:42;;;;;;;5.33;4.00;;;;;;;3.64;55.29;95649.03;4993953;28;20581;-74
2021/04/26 05:57:10;;;;;;;8.37;4.77;;;;;;;3.83;54.77;95650.34;5013095;28;20183;-73
2021/04/26 05:59:35;;;;;;;6.93;4.10;;;;;;;3.97;54.08;95651.03;4995310;28;20179;-73
2021/04/26 06:02:00;;;;;;;9.47;4.30;;;;;;;3.89;53.88;95642.22;4993199;28;20189;-74
2021/04/26 06:04:26;;;;;;;5.80;4.23;;;;;;;4.00;54.15;95647.44;5005386;28;20194;-73
2021/04/26 06:06:51;;;;;;;7.00;4.57;;;;;;;4.10;53.18;95643.31;4993410;28;20219;-73
2021/04/26 06:09:16;;;;;;;8.40;5.07;;;;;;;4.07;53.60;95643.53;4994630;28;20197;-73
2021/04/26 06:11:42;;;;;;;7.60;4.63;;;;;;;4.13;53.57;95648.22;4994646;28;20179;-74
2021/04/26 06:14:07;;;;;;;7.17;4.50;;;;;;;4.17;52.96;95652.25;4994696;28;20183;-73
2021/04/26 06:16:32;;;;;;;8.53;4.40;;;;;;;4.19;53.39;95654.72;4994216;28;20746;-74
2021/04/26 06:18:58;;;;;;;9.10;4.23;;;;;;;3.94;53.90;95658.13;4994430;28;20525;-74
2021/04/26 06:21:23;;;;;;;7.13;4.40;;;;;;;3.91;53.77;95661.75;5012668;28;20219;-74
2021/04/26 06:23:48;;;;;;;7.50;4.70;;;;;;;3.92;53.81;95660.00;4995229;28;20195;-74
2021/04/26 06:26:13;;;;;;;9.53;4.90;;;;;;;4.19;53.38;95660.66;5011965;28;20269;-73
2021/04/26 06:28:39;;;;;;;10.50;4.50;;;;;;;4.25;53.44;95665.41;4994579;28;20563;-73
2021/04/26 06:31:04;;;;;;;6.80;4.60;;;;;;;4.89;51.85;95666.94;4994188;28;20208;-74
2021/04/26 06:33:29;;;;;;;6.50;4.37;;;;;;;6.73;46.80;95659.91;4994812;28;20188;-74
2021/04/26 06:35:55;;;;;;;7.47;4.07;;;;;;;8.18;42.19;95661.69;5012082;28;20203;-74
2021/04/26 06:38:21;;;;;;;5.63;3.50;;;;;;;9.64;40.11;95667.94;5012641;28;20210;-74
2021/04/26 06:40:47;;;;;;;6.60;4.00;;;;;;;11.23;35.13;95666.03;4994506;28;20191;-75
2021/04/26 06:43:13;;;;;;;4.33;3.57;;;;;;;12.32;33.27;95656.09;4994560;28;20185;-75
2021/04/26 06:45:39;;;;;;;7.13;3.60;;;;;;;12.08;33.24;95657.56;5026767;28;20195;-74
2021/04/26 06:48:05;;;;;;;8.20;4.03;;;;;;;13.25;31.08;95649.03;4994602;28;20214;-74
2021/04/26 06:50:30;;;;;;;6.23;3.70;;;;;;;13.89;28.74;95658.69;5001553;28;20195;-75
2021/04/26 06:52:56;;;;;;;6.33;3.40;;;;;;;13.53;30.09;95655.59;4997038;28;20202;-75
2021/04/26 06:55:23;;;;;;;9.30;4.07;;;;;;;13.15;31.42;95651.78;4994205;28;20261;-74
2021/04/26 06:57:49;;;;;;;9.00;3.53;;;;;;;13.32;30.49;95653.47;4994268;28;20209;-74
2021/04/26 07:00:15;;;;;;;6.80;3.97;;;;;;;12.75;31.33;95655.13;4994474;28;20210;-74
2021/04/26 07:02:40;;;;;;;8.03;4.00;;;;;;;12.73;31.24;95657.88;5011039;28;20183;-74
2021/04/26 07:05:07;;;;;;;6.10;3.90;;;;;;;12.55;31.15;95662.38;4993700;28;20207;-74
2021/04/26 07:07:32;;;;;;;8.43;3.63;;;;;;;11.37;33.73;95649.88;4994006;28;20211;-78
2021/04/26 07:09:58;;;;;;;97.73;12.93;;;;;;;11.37;33.52;95654.28;5011770;28;20769;-74
2021/04/26 07:12:23;;;;;;;10.83;4.17;;;;;;;10.94;35.22;95648.84;5011714;28;20202;-75
2021/04/26 07:14:49;;;;;;;11.03;4.30;;;;;;;10.75;34.86;95646.38;5011456;28;20193;-74
2021/04/26 07:17:14;;;;;;;7.93;4.20;;;;;;;10.06;36.33;95651.97;4977880;28;20172;-75
2021/04/26 07:19:39;;;;;;;52.13;8.83;;;;;;;8.75;38.81;95639.56;4994137;28;20270;-74
2021/04/26 07:22:05;;;;;;;9.60;5.00;;;;;;;8.68;40.01;95642.81;5011914;28;20198;-76
2021/04/26 07:24:30;;;;;;;10.17;4.27;;;;;;;8.49;40.27;95625.50;4993821;28;20593;-76
2021/04/26 07:26:55;;;;;;;38.20;6.43;;;;;;;8.30;41.20;95627.97;4993752;28;20306;-76
2021/04/26 07:29:21;;;;;;;9.70;5.37;;;;;;;8.21;41.95;95627.81;4994027;28;20691;-76
2021/04/26 07:31:46;;;;;;;15.23;6.50;;;;;;;7.01;44.14;95636.09;5011247;28;20582;-75
2021/04/26 07:34:11;;;;;;;10.07;5.17;;;;;;;7.33;43.98;95632.66;4994029;28;20198;-73
2021/04/26 07:36:37;;;;;;;8.63;5.20;;;;;;;7.39;42.97;95625.22;4993826;28;20289;-75
2021/04/26 07:39:04;;;;;;;56.10;10.80;;;;;;;7.37;44.34;95634.06;4993765;28;20183;-74
2021/04/26 07:41:29;;;;;;;10.30;4.60;;;;;;;7.73;43.61;95635.34;5011331;28;20183;-74
2021/04/26 07:43:54;;;;;;;7.53;4.83;;;;;;;7.43;44.14;95633.56;4992347;28;20245;-74
2021/04/26 07:46:20;;;;;;;8.90;5.07;;;;;;;7.34;44.41;95629.16;4992145;28;20215;-74
2021/04/26 07:48:45;;;;;;;11.07;6.23;;;;;;;7.61;44.41;95619.13;5008075;28;20277;-74
2021/04/26 07:51:10;;;;;;;7.00;5.30;;;;;;;7.74;43.84;95625.84;5011098;28;20643;-75
2021/04/26 07:53:36;;;;;;;11.63;5.37;;;;;;;7.60;44.78;95619.25;4977628;28;20202;-76
2021/04/26 07:56:01;;;;;;;8.53;5.27;;;;;;;7.91;43.95;95622.66;5009995;28;20637;-76
2021/04/26 07:58:27;;;;;;;14.87;5.70;;;;;;;7.73;44.15;95613.88;4993634;28;20266;-76
2021/04/26 08:00:52;;;;;;;17.20;5.40;;;;;;;7.93;43.80;95615.59;4998117;28;20191;-76
2021/04/26 08:03:19;;;;;;;11.40;5.23;;;;;;;7.75;44.24;95619.72;4989080;28;20658;-77
2021/04/26 08:05:44;;;;;;;11.90;5.50;;;;;;;7.55;44.43;95609.28;5010246;28;20206;-77
2021/04/26 08:08:09;;;;;;;10.57;4.60;;;;;;;7.72;45.26;95607.88;4993489;28;20203;-77
2021/04/26 08:10:35;;;;;;;7.83;5.00;;;;;;;7.78;45.13;95606.56;4993603;28;20626;-77
2021/04/26 08:13:00;;;;;;;9.37;5.43;;;;;;;8.03;44.91;95605.28;5010535;28;20257;-77
2021/04/26 08:15:26;;;;;;;12.10;5.03;;;;;;;8.21;43.68;95607.09;4996351;28;20261;-77
2021/04/26 08:17:52;;;;;;;11.93;5.60;;;;;;;7.94;43.47;95612.03;4997574;28;20210;-77
2021/04/26 08:20:17;;;;;;;9.93;4.53;;;;;;;8.04;43.92;95615.50;4997458;28;20211;-76
2021/04/26 08:22:42;;;;;;;9.50;5.60;;;;;;;7.54;43.97;95617.97;4994206;28;20188;-77
2021/04/26 08:25:08;;;;;;;8.43;4.80;;;;;;;7.79;44.23;95613.34;5013597;28;20286;-76
2021/04/26 08:27:34;;;;;;;12.70;5.27;;;;;;;7.75;44.14;95611.97;5014755;28;20203;-76
2021/04/26 08:29:59;;;;;;;10.23;5.17;;;;;;;7.75;44.61;95611.97;4997021;28;20211;-76
2021/04/26 08:32:25;;;;;;;7.47;4.63;;;;;;;7.63;44.32;95603.47;4997659;28;20202;-76
2021/04/26 08:34:50;;;;;;;8.57;5.23;;;;;;;7.86;44.63;95609.28;5016977;28;20210;-77
2021/04/26 08:37:15;;;;;;;9.93;4.60;;;;;;;8.15;43.46;95614.59;5001611;28;20186;-76
2021/04/26 08:39:41;;;;;;;8.23;5.03;;;;;;;7.71;43.47;95610.59;4998166;28;20187;-80
2021/04/26 08:42:06;;;;;;;8.37;4.90;;;;;;;8.03;43.95;95613.84;4998455;28;20558;-75
2021/04/26 08:44:32;;;;;;;8.23;5.20;;;;;;;8.45;44.36;95614.56;5015090;28;20263;-76
2021/04/26 08:46:57;;;;;;;10.53;4.80;;;;;;;8.44;42.56;95619.88;4980069;28;20206;-76
2021/04/26 08:49:23;;;;;;;9.60;4.63;;;;;;;8.56;43.80;95608.44;4996813;28;20191;-76
2021/04/26 08:51:48;;;;;;;9.70;5.23;;;;;;;8.34;43.31;95611.25;4996878;28;20643;-75
2021/04/26 08:54:15;;;;;;;10.83;4.73;;;;;;;8.72;43.06;95613.94;4995751;28;20229;-75
2021/04/26 08:56:40;;;;;;;8.57;5.30;;;;;;;8.88;42.21;95607.41;4996532;28;20195;-76
2021/04/26 08:59:06;;;;;;;9.43;5.13;;;;;;;9.23;42.76;95615.44;4996316;28;20202;-74
2021/04/26 09:01:31;;;;;;;6.10;4.97;;;;;;;9.12;42.26;95612.19;5014366;28;20744;-76
2021/04/26 09:04:08;;;;;;;9.93;4.67;;;;;;;9.67;41.68;95615.78;4996758;28;20183;-75
2021/04/26 09:06:54;;;;;;;9.47;5.07;;;;;;;9.97;40.57;95621.69;4996407;28;20211;-76
2021/04/26 09:09:41;;;;;;;12.00;5.00;;;;;;;10.07;39.42;95622.47;5022039;28;20597;-76
2021/04/26 09:12:12;;;;;;;9.30;5.10;;;;;;;10.13;41.26;95621.91;5014243;28;20186;-76
2021/04/26 09:14:44;;;;;;;9.23;5.47;;;;;;;10.24;39.87;95628.72;4996376;28;20573;-76
2021/04/26 09:17:35;;;;;;;7.97;5.13;;;;;;;10.13;41.01;95621.91;4996010;28;20210;-76
2021/04/26 09:20:20;;;;;;;9.03;5.97;;;;;;;10.22;39.37;95623.69;4996545;28;20195;-76
2021/04/26 09:22:51;;;;;;;8.13;5.10;;;;;;;10.32;38.83;95611.47;4996590;28;20179;-76
2021/04/26 09:25:28;;;;;;;11.60;5.20;;;;;;;10.51;39.96;95610.56;5018494;28;20214;-76
2021/04/26 09:27:59;;;;;;;17.73;6.57;;;;;;;10.28;39.30;95610.16;5028862;28;20207;-76
2021/04/26 09:30:47;;;;;;;8.07;4.90;;;;;;;10.47;39.51;95610.03;5013936;28;20190;-76
2021/04/26 09:33:17;;;;;;;9.53;5.00;;;;;;;9.95;39.86;95616.66;4995711;28;20184;-74
2021/04/26 09:35:43;;;;;;;19.17;6.00;;;;;;;9.86;40.09;95617.50;5027319;28;20214;-75
2021/04/26 09:38:32;;;;;;;9.93;5.20;;;;;;;9.59;40.91;95610.50;4986923;28;20179;-75
2021/04/26 09:41:08;;;;;;;7.23;5.20;;;;;;;10.24;40.26;95606.19;4992397;28;20187;-76
2021/04/26 09:43:33;;;;;;;82.97;12.23;;;;;;;10.41;39.02;95617.59;4982120;28;20187;-75
2021/04/26 09:45:59;;;;;;;11.20;5.43;;;;;;;10.36;39.92;95609.44;5012058;28;20278;-76
2021/04/26 09:48:27;;;;;;;49.37;9.13;;;;;;;10.71;39.85;95606.09;4996064;28;20208;-78
2021/04/26 09:50:56;;;;;;;11.40;5.97;;;;;;;11.00;39.35;95604.09;5035283;28;20193;-79
2021/04/26 09:53:22;;;;;;;8.10;4.80;;;;;;;11.12;39.23;95609.03;5021102;28;20274;-80
2021/04/26 09:55:48;;;;;;;10.87;5.67;;;;;;;10.60;37.24;95607.13;5017018;28;20226;-79
2021/04/26 09:58:13;;;;;;;257.40;27.90;;;;;;;10.79;38.58;95600.97;4999359;28;20753;-78
2021/04/26 10:00:42;;;;;;;11.07;5.53;;;;;;;10.28;38.56;95597.16;4982435;28;20209;-79
2021/04/26 10:03:08;;;;;;;9.83;5.60;;;;;;;10.16;39.51;95590.50;5014841;28;20195;-79
2021/04/26 10:05:34;;;;;;;12.37;5.50;;;;;;;10.26;39.46;95595.69;5015151;28;20293;-77
2021/04/26 10:08:00;;;;;;;8.70;5.20;;;;;;;10.33;39.54;95594.94;5030236;28;20229;-79
2021/04/26 10:10:26;;;;;;;6.67;5.20;;;;;;;10.29;38.57;95591.00;5000188;28;20684;-78
2021/04/26 10:12:51;;;;;;;9.57;5.07;;;;;;;10.52;38.76;95588.84;4997512;28;20309;-79
2021/04/26 10:15:24;;;;;;;12.30;5.07;;;;;;;10.84;38.38;95584.94;5014402;28;20332;-79
2021/04/26 10:17:50;;;;;;;6.73;4.83;;;;;;;10.98;37.31;95580.03;4986048;28;20175;-78
2021/04/26 10:20:15;;;;;;;8.50;4.90;;;;;;;11.26;38.69;95585.13;4981804;28;20195;-78
2021/04/26 10:22:43;;;;;;;15.20;5.10;;;;;;;11.46;37.16;95583.97;4997878;28;20558;-78
2021/04/26 10:25:09;;;;;;;6.20;5.20;;;;;;;11.56;38.15;95579.50;5013185;28;20218;-78
2021/04/26 10:27:38;;;;;;;7.40;5.10;;;;;;;10.98;36.61;95581.81;4994534;28;20243;-78
2021/04/26 10:30:08;;;;;;;11.30;5.20;;;;;;;11.07;37.94;95581.75;5009660;28;20175;-75
2021/04/26 10:32:53;;;;;;;9.07;4.90;;;;;;;11.35;37.27;95581.63;5012497;28;20840;-75
2021/04/26 10:35:18;;;;;;;10.23;5.20;;;;;;;11.69;37.70;95580.88;4996955;28;20199;-75
2021/04/26 10:37:44;;;;;;;12.17;5.17;;;;;;;11.04;36.40;95570.81;4994700;28;20175;-75
2021/04/26 10:40:15;;;;;;;6.57;4.67;;;;;;;11.46;37.34;95572.75;4994971;28;20654;-76
2021/04/26 10:42:45;;;;;;;9.43;4.87;;;;;;;11.61;34.59;95566.03;4991763;28;20660;-75
2021/04/26 10:45:13;;;;;;;8.00;5.23;;;;;;;10.82;36.83;95569.50;5010196;28;20210;-74
2021/04/26 10:47:40;;;;;;;5.90;5.10;;;;;;;11.09;37.05;95565.19;5011887;28;20207;-74
2021/04/26 10:50:05;;;;;;;11.83;5.30;;;;;;;11.50;36.68;95556.72;4991593;28;20190;-75
2021/04/26 10:52:31;;;;;;;7.50;5.27;;;;;;;11.37;34.87;95560.66;5006403;28;20199;-75
2021/04/26 10:55:02;;;;;;;12.47;5.47;;;;;;;11.41;35.38;95562.84;5011515;28;20537;-75
2021/04/26 10:57:42;;;;;;;5.57;4.70;;;;;;;11.22;34.11;95555.19;5012133;28;20179;-74
2021/04/26 11:02:53;;;;;;;7.17;4.90;;;;;;;11.43;35.01;95545.28;5010562;28;20195;-74
2021/04/26 11:05:19;;;;;;;6.27;5.03;;;;;;;11.73;36.58;95532.78;5005306;28;20210;-74
2021/04/26 11:07:50;;;;;;;7.57;5.20;;;;;;;12.04;35.27;95528.72;5010935;28;20617;-73
2021/04/26 11:10:38;;;;;;;8.37;4.63;;;;;;;12.09;37.52;95529.06;4995285;28;20183;-74
2021/04/26 11:13:34;;;;;;;6.47;4.27;;;;;;;11.88;33.67;95518.25;5008391;28;20364;-73
2021/04/26 11:16:04;;;;;;;7.67;4.90;;;;;;;11.97;35.82;95516.50;4999403;28;20237;-74
2021/04/26 11:18:30;;;;;;;8.57;5.23;;;;;;;12.31;35.24;95514.66;5005116;28;20171;-74
2021/04/26 11:20:55;;;;;;;9.90;4.77;;;;;;;12.39;35.32;95513.88;5010909;28;20685;-73
2021/04/26 11:23:46;;;;;;;8.57;5.23;;;;;;;12.56;35.08;95512.94;5011176;28;20191;-74
2021/04/26 11:26:12;;;;;;;9.27;5.40;;;;;;;12.59;34.75;95520.41;5011368;28;20287;-74
2021/04/26 11:29:05;;;;;;;8.77;5.63;;;;;;;11.93;33.58;95500.38;5011338;28;20203;-74
2021/04/26 11:31:45;;;;;;;7.57;5.30;;;;;;;12.07;34.72;95498.97;5011128;28;20175;-76
2021/04/26 11:34:12;;;;;;;9.50;5.63;;;;;;;11.31;36.01;95494.53;5011539;28;20183;-74
2021/04/26 11:37:00;;;;;;;11.47;5.77;;;;;;;11.66;35.87;95498.78;5011074;28;20203;-74
2021/04/26 11:39:30;;;;;;;6.43;5.50;;;;;;;11.74;35.36;95482.38;5008583;28;20179;-74
2021/04/26 11:41:56;;;;;;;7.63;5.00;;;;;;;12.12;34.65;95483.69;4993498;28;20207;-73
2021/04/26 11:44:34;;;;;;;7.63;5.27;;;;;;;12.30;35.31;95481.78;5010975;28;20232;-75